createdAt,value
2022-11-24T00:01:39.186Z,13.37
2022-11-24T00:04:41.882Z,14.07
2022-11-24T00:07:44.688Z,16.93
2022-11-24T00:10:48.906Z,22.67
2022-11-24T00:13:52.305Z,16.13
2022-11-24T00:16:55.257Z,17.60
2022-11-24T00:19:58.130Z,15.60
2022-11-24T00:23:01.915Z,25.57
2022-11-24T00:26:08.480Z,21.27
2022-11-24T00:29:12.929Z,16.10
2022-11-24T00:32:15.637Z,21.83
2022-11-24T00:35:18.345Z,17.23
2022-11-24T00:38:21.226Z,16.00
2022-11-24T00:41:26.268Z,12.23
2022-11-24T00:44:30.008Z,15.97
2022-11-24T00:47:32.976Z,21.17
2022-11-24T00:50:35.737Z,12.00
2022-11-24T00:53:38.763Z,13.83
2022-11-24T00:56:42.856Z,18.33
2022-11-24T00:59:45.587Z,12.90
2022-11-24T01:02:48.632Z,20.07
2022-11-24T01:05:51.398Z,18.10
2022-11-24T01:08:54.788Z,18.93
2022-11-24T01:12:04.749Z,18.13
2022-11-24T01:15:08.273Z,18.07
2022-11-24T01:18:11.151Z,11.50
2022-11-24T01:21:14.833Z,15.27
2022-11-24T01:24:18.352Z,17.27
2022-11-24T01:27:22.414Z,23.80
2022-11-24T01:30:25.210Z,12.10
2022-11-24T01:33:28.116Z,15.53
2022-11-24T01:36:30.901Z,16.05
2022-11-24T01:39:33.619Z,13.50
2022-11-24T01:42:48.090Z,17.07
2022-11-24T01:45:51.110Z,14.33
2022-11-24T01:49:01.422Z,20.97
2022-11-24T01:52:08.061Z,23.90
2022-11-24T01:55:18.739Z,18.93
2022-11-24T01:58:27.738Z,14.00
2022-11-24T02:01:32.239Z,16.17
2022-11-24T02:04:36.590Z,16.53
2022-11-24T02:07:39.700Z,14.13
2022-11-24T02:10:43.823Z,14.70
2022-11-24T02:13:49.709Z,15.80
2022-11-24T02:16:53.074Z,21.10
2022-11-24T02:19:58.407Z,14.77
2022-11-24T02:23:06.392Z,13.57
2022-11-24T02:26:17.389Z,16.70
2022-11-24T02:29:21.819Z,20.30
2022-11-24T02:32:24.671Z,19.77
2022-11-24T02:35:28.694Z,18.40
2022-11-24T02:38:33.356Z,15.90
2022-11-24T02:41:36.083Z,18.13
2022-11-24T02:44:45.246Z,18.50
2022-11-24T02:47:47.967Z,19.00
2022-11-24T02:50:50.855Z,20.00
2022-11-24T02:53:53.551Z,13.10
2022-11-24T02:56:56.664Z,19.23
2022-11-24T03:00:00.767Z,21.30
2022-11-24T03:03:04.787Z,17.93
2022-11-24T03:06:07.634Z,16.30
2022-11-24T03:09:11.300Z,16.63
2022-11-24T03:12:14.088Z,19.33
2022-11-24T03:15:18.407Z,21.03
2022-11-24T03:18:21.215Z,15.70
2022-11-24T03:21:23.882Z,26.17
2022-11-24T03:24:26.654Z,22.40
2022-11-24T03:27:29.483Z,15.47
2022-11-24T03:30:33.586Z,17.73
2022-11-24T03:33:36.950Z,18.70
2022-11-24T03:36:39.837Z,15.73
2022-11-24T03:39:42.634Z,24.10
2022-11-24T03:42:45.339Z,14.17
2022-11-24T03:45:50.120Z,17.87
2022-11-24T03:48:52.827Z,13.80
2022-11-24T03:51:55.530Z,16.43
2022-11-24T03:54:58.272Z,16.97
2022-11-24T03:58:02.115Z,15.57
2022-11-24T04:01:06.198Z,19.80
2022-11-24T04:04:11.398Z,19.40
2022-11-24T04:07:14.316Z,19.77
2022-11-24T04:10:17.299Z,16.77
2022-11-24T04:13:21.234Z,13.67
2022-11-24T04:16:25.372Z,16.73
2022-11-24T04:19:28.075Z,23.17
2022-11-24T04:22:31.430Z,25.37
2022-11-24T04:25:34.554Z,22.90
2022-11-24T04:28:37.994Z,16.17
2022-11-24T04:31:42.087Z,21.77
2022-11-24T04:34:45.067Z,14.30
2022-11-24T04:37:48.114Z,25.83
2022-11-24T04:40:51.081Z,19.07
2022-11-24T04:43:53.752Z,23.93
2022-11-24T04:46:57.901Z,25.83
2022-11-24T04:50:00.675Z,18.77
2022-11-24T04:53:04.507Z,19.33
2022-11-24T04:56:08.240Z,16.13
2022-11-24T04:59:14.311Z,19.37
2022-11-24T05:02:18.813Z,19.27
2022-11-24T05:05:21.622Z,15.90
2022-11-24T05:08:24.322Z,26.17
2022-11-24T05:11:27.003Z,60.67
2022-11-24T05:14:29.752Z,25.60
2022-11-24T05:17:35.723Z,27.80
2022-11-24T05:20:38.993Z,25.53
2022-11-24T05:23:41.926Z,23.07
2022-11-24T05:26:44.640Z,32.27
2022-11-24T05:29:47.584Z,28.23
2022-11-24T05:32:51.636Z,28.20
2022-11-24T05:35:54.377Z,28.43
2022-11-24T05:38:57.092Z,31.03
2022-11-24T05:41:59.895Z,20.60
2022-11-24T05:45:02.641Z,22.83
2022-11-24T05:48:08.490Z,26.80
2022-11-24T05:51:11.202Z,27.33
2022-11-24T05:54:13.914Z,29.00
2022-11-24T05:57:18.036Z,26.87
2022-11-24T06:00:20.848Z,30.50
2022-11-24T06:03:24.932Z,27.90
2022-11-24T06:06:28.068Z,28.00
2022-11-24T06:09:30.821Z,28.60
2022-11-24T06:12:33.552Z,28.33
2022-11-24T06:15:37.705Z,29.27
2022-11-24T06:18:42.337Z,20.80
2022-11-24T06:21:45.037Z,28.60
2022-11-24T06:24:47.887Z,28.53
2022-11-24T06:27:50.923Z,31.60
2022-11-24T06:30:53.858Z,33.20
2022-11-24T06:33:57.915Z,33.57
2022-11-24T06:37:00.695Z,29.17
2022-11-24T06:40:04.443Z,30.70
2022-11-24T06:43:07.163Z,26.07
2022-11-24T06:46:10.092Z,23.50
2022-11-24T06:49:14.194Z,32.13
2022-11-24T06:52:16.883Z,30.87
2022-11-24T06:55:19.576Z,27.70
2022-11-24T06:58:22.659Z,34.37
2022-11-24T07:01:27.330Z,32.10
2022-11-24T07:04:31.782Z,34.73
2022-11-24T07:07:34.726Z,34.17
2022-11-24T07:10:38.251Z,36.83
2022-11-24T07:13:40.960Z,35.20
2022-11-24T07:16:43.759Z,25.60
2022-11-24T07:19:47.914Z,30.90
2022-11-24T07:22:50.640Z,28.60
2022-11-24T07:25:54.787Z,23.20
2022-11-24T07:28:58.122Z,33.83
2022-11-24T07:32:05.248Z,24.50
2022-11-24T07:35:10.418Z,23.57
2022-11-24T07:38:13.306Z,22.57
2022-11-24T07:41:19.412Z,33.73
2022-11-24T07:44:22.141Z,19.43
2022-11-24T07:47:24.904Z,24.17
2022-11-24T07:50:28.993Z,31.23
2022-11-24T07:53:32.427Z,30.67
2022-11-24T07:56:35.229Z,37.00
2022-11-24T07:59:37.926Z,38.00
2022-11-24T08:02:41.556Z,28.80
2022-11-24T08:06:22.394Z,40.07
2022-11-24T08:09:16.638Z,27.60
2022-11-24T08:12:21.666Z,29.37
2022-11-24T08:15:24.412Z,36.53
2022-11-24T08:18:27.858Z,30.87
2022-11-24T08:21:35.442Z,32.13
2022-11-24T08:24:38.521Z,28.77
2022-11-24T08:27:41.340Z,25.70
2022-11-24T08:30:44.032Z,23.20
2022-11-24T08:33:47.272Z,23.30
2022-11-24T08:36:51.434Z,18.10
2022-11-24T08:39:54.244Z,15.73
2022-11-24T08:42:58.280Z,17.60
2022-11-24T08:46:02.210Z,20.87
2022-11-24T08:49:06.440Z,24.13
2022-11-24T08:52:10.827Z,25.93
2022-11-24T08:55:13.565Z,19.43
2022-11-24T08:58:16.725Z,10.67
2022-11-24T09:01:19.723Z,15.70
2022-11-24T09:04:22.593Z,22.90
2022-11-24T09:07:26.731Z,10.27
2022-11-24T09:10:29.555Z,10.27
2022-11-24T09:13:32.327Z,9.30
2022-11-24T09:16:35.223Z,9.17
2022-11-24T09:19:38.029Z,8.00
2022-11-24T09:22:43.094Z,9.67
2022-11-24T09:25:45.803Z,9.43
2022-11-24T09:28:50.110Z,7.67
2022-11-24T09:31:53.186Z,12.27
2022-11-24T09:34:56.262Z,13.20
2022-11-24T09:38:00.334Z,10.07
2022-11-24T09:41:27.954Z,9.47
2022-11-24T09:45:06.480Z,12.47
2022-11-24T09:48:17.232Z,12.03
2022-11-24T09:51:25.001Z,12.17
2022-11-24T09:54:31.589Z,6.47
2022-11-24T09:57:38.226Z,12.50
2022-11-24T10:00:42.373Z,13.53
2022-11-24T10:03:47.381Z,8.53
2022-11-24T10:07:00.306Z,10.17
2022-11-24T10:10:13.245Z,8.60
2022-11-24T10:13:31.266Z,9.67
2022-11-24T10:16:46.988Z,7.07
2022-11-24T10:19:56.104Z,12.50
2022-11-24T10:23:24.539Z,11.70
2022-11-24T10:26:36.636Z,7.43
2022-11-24T10:29:41.822Z,9.53
2022-11-24T10:32:48.502Z,8.70
2022-11-24T10:35:56.956Z,7.80
2022-11-24T10:39:05.323Z,10.47
2022-11-24T10:42:16.800Z,10.10
2022-11-24T10:45:22.288Z,9.47
2022-11-24T10:48:28.315Z,5.07
2022-11-24T10:51:54.139Z,10.20
2022-11-24T10:54:59.096Z,7.20
2022-11-24T10:58:17.245Z,8.37
2022-11-24T11:01:22.304Z,8.30
2022-11-24T11:04:28.123Z,7.33
2022-11-24T11:07:30.915Z,10.77
2022-11-24T11:10:33.803Z,12.87
2022-11-24T11:13:37.862Z,12.03
2022-11-24T11:16:42.234Z,8.83
2022-11-24T11:19:54.257Z,5.73
2022-11-24T11:23:01.372Z,9.43
2022-11-24T11:26:31.289Z,9.43
2022-11-24T11:36:26.210Z,9.80
2022-11-24T11:39:32.920Z,12.80
2022-11-24T11:46:13.702Z,13.43
2022-11-24T11:49:16.552Z,6.00
2022-11-24T11:52:47.708Z,10.97
2022-11-24T11:56:10.814Z,11.17
2022-11-24T11:59:28.599Z,7.23
2022-11-24T12:02:53.593Z,5.47
2022-11-24T12:06:05.803Z,7.97
2022-11-24T12:09:21.343Z,15.37
2022-11-24T12:12:44.670Z,6.67
2022-11-24T12:15:51.013Z,10.97
2022-11-24T12:19:08.293Z,9.17
2022-11-24T12:22:23.452Z,8.70
2022-11-24T12:25:31.768Z,7.87
2022-11-24T12:28:46.378Z,8.03
2022-11-24T12:31:56.241Z,9.37
2022-11-24T12:35:12.910Z,9.60
2022-11-24T12:38:31.740Z,12.07
2022-11-24T12:41:50.142Z,11.00
2022-11-24T12:45:14.108Z,10.43
2022-11-24T12:48:29.745Z,9.07
2022-11-24T12:51:39.223Z,6.13
2022-11-24T12:54:42.258Z,11.13
2022-11-24T12:57:51.425Z,12.33
2022-11-24T13:01:04.234Z,12.23
2022-11-24T13:04:16.547Z,7.47
2022-11-24T13:07:28.115Z,6.47
2022-11-24T13:10:54.712Z,8.63
2022-11-24T13:13:59.790Z,7.77
2022-11-24T13:20:33.631Z,9.23
2022-11-24T13:23:38.327Z,9.93
2022-11-24T13:26:47.320Z,9.90
2022-11-24T13:29:51.658Z,7.63
2022-11-24T13:33:02.329Z,7.77
2022-11-24T13:36:35.002Z,8.73
2022-11-24T13:39:52.016Z,8.63
2022-11-24T13:43:23.393Z,5.80
2022-11-24T13:47:03.259Z,9.53
2022-11-24T13:50:13.898Z,10.50
2022-11-24T13:53:26.339Z,10.83
2022-11-24T13:56:32.381Z,5.83
2022-11-24T13:59:36.418Z,5.13
2022-11-24T14:02:39.465Z,8.03
2022-11-24T14:05:49.340Z,6.43
2022-11-24T14:08:53.286Z,11.20
2022-11-24T14:12:02.866Z,9.63
2022-11-24T14:15:23.496Z,10.27
2022-11-24T14:18:26.393Z,7.90
2022-11-24T14:21:31.860Z,7.13
2022-11-24T14:24:38.227Z,8.47
2022-11-24T14:27:45.552Z,11.80
2022-11-24T14:30:48.435Z,8.93
2022-11-24T14:33:52.321Z,10.43
2022-11-24T14:36:57.080Z,6.33
2022-11-24T14:40:00.164Z,8.70
2022-11-24T14:43:05.014Z,6.63
2022-11-24T14:46:12.120Z,6.67
2022-11-24T14:49:22.509Z,6.87
2022-11-24T14:52:26.776Z,9.90
2022-11-24T14:55:32.735Z,5.37
2022-11-24T14:58:41.994Z,11.83
2022-11-24T15:01:45.303Z,10.00
2022-11-24T15:05:03.191Z,11.03
2022-11-24T15:08:06.589Z,8.70
2022-11-24T15:11:09.432Z,11.00
2022-11-24T15:14:32.704Z,13.40
2022-11-24T15:17:36.081Z,8.37
2022-11-24T15:20:41.786Z,11.33
2022-11-24T15:23:45.691Z,12.57
2022-11-24T15:26:48.429Z,9.70
2022-11-24T15:29:52.476Z,15.50
2022-11-24T15:32:56.682Z,14.90
2022-11-24T15:36:00.525Z,16.83
2022-11-24T15:39:04.447Z,14.27
2022-11-24T15:42:07.553Z,11.73
2022-11-24T15:45:12.632Z,14.97
2022-11-24T15:48:18.141Z,14.53
2022-11-24T15:51:22.421Z,29.37
2022-11-24T15:54:26.443Z,25.00
2022-11-24T15:57:29.220Z,50.30
2022-11-24T16:00:33.708Z,16.17
2022-11-24T16:03:47.090Z,16.23
2022-11-24T16:06:50.423Z,14.53
2022-11-24T16:09:53.157Z,35.57
2022-11-24T16:12:55.833Z,18.17
2022-11-24T16:16:00.072Z,33.20
2022-11-24T16:19:03.200Z,30.70
2022-11-24T16:22:06.397Z,28.13
2022-11-24T16:25:10.197Z,22.90
2022-11-24T16:28:13.249Z,13.93
2022-11-24T16:31:18.501Z,18.17
2022-11-24T16:34:22.027Z,17.97
2022-11-24T16:37:24.971Z,12.77
2022-11-24T16:40:28.648Z,12.43
2022-11-24T16:43:31.766Z,20.57
2022-11-24T16:46:36.016Z,40.93
2022-11-24T16:49:39.062Z,27.23
2022-11-24T16:52:41.908Z,27.80
2022-11-24T16:55:44.667Z,27.70
2022-11-24T16:58:47.628Z,24.07
2022-11-24T17:01:51.874Z,22.63
2022-11-24T17:04:54.731Z,26.20
2022-11-24T17:07:57.539Z,21.40
2022-11-24T17:11:06.161Z,26.83
2022-11-24T17:14:10.986Z,30.80
2022-11-24T17:17:15.252Z,34.47
2022-11-24T17:20:18.022Z,23.23
2022-11-24T17:23:20.818Z,30.23
2022-11-24T17:26:24.884Z,55.00
2022-11-24T17:29:27.650Z,32.57
2022-11-24T17:32:32.671Z,39.77
2022-11-24T17:35:35.740Z,33.83
2022-11-24T17:38:38.464Z,37.80
2022-11-24T17:41:41.288Z,42.67
2022-11-24T17:44:45.678Z,69.97
2022-11-24T17:47:53.241Z,54.07
2022-11-24T17:51:03.301Z,43.77
2022-11-24T17:54:31.162Z,42.90
2022-11-24T17:57:29.305Z,37.40
2022-11-24T18:00:32.166Z,41.47
2022-11-24T18:03:36.495Z,41.20
2022-11-24T18:06:39.444Z,40.13
2022-11-24T18:09:42.256Z,35.30
2022-11-24T18:12:44.998Z,38.50
2022-11-24T18:15:48.029Z,29.10
2022-11-24T18:19:07.451Z,27.33
2022-11-24T18:22:11.356Z,34.93
2022-11-24T18:25:14.120Z,49.73
2022-11-24T18:28:16.806Z,51.90
2022-11-24T18:31:20.701Z,71.50
2022-11-24T18:34:25.182Z,51.80
2022-11-24T18:37:30.429Z,30.23
2022-11-24T18:40:33.218Z,22.50
2022-11-24T18:43:38.130Z,26.63
2022-11-24T18:46:40.898Z,30.57
2022-11-24T18:49:44.977Z,27.53
2022-11-24T18:52:47.636Z,24.33
2022-11-24T18:55:57.956Z,26.37
2022-11-24T18:59:00.661Z,23.13
2022-11-24T19:02:03.766Z,28.10
2022-11-24T19:05:08.494Z,28.17
2022-11-24T19:08:11.255Z,36.57
2022-11-24T19:11:18.984Z,46.67
2022-11-24T19:14:21.670Z,46.80
2022-11-24T19:17:24.435Z,39.47
2022-11-24T19:20:28.640Z,54.93
2022-11-24T19:23:31.374Z,61.20
2022-11-24T19:26:35.841Z,55.80
2022-11-24T19:29:42.927Z,57.03
2022-11-24T19:32:46.223Z,77.60
2022-11-24T19:36:00.262Z,55.70
2022-11-24T19:39:04.758Z,46.17
2022-11-24T19:42:07.658Z,54.60
2022-11-24T19:45:11.316Z,55.43
2022-11-24T19:48:14.112Z,47.20
2022-11-24T19:51:20.153Z,39.47
2022-11-24T19:54:22.834Z,50.63
2022-11-24T19:57:25.528Z,54.87
2022-11-24T20:00:31.910Z,36.03
2022-11-24T20:03:35.166Z,35.93
2022-11-24T20:06:41.227Z,35.20
2022-11-24T20:09:44.005Z,34.50
2022-11-24T20:12:46.866Z,27.50
2022-11-24T20:15:49.591Z,21.53
2022-11-24T20:18:53.350Z,24.77
2022-11-24T20:21:57.577Z,30.17
2022-11-24T20:25:00.301Z,22.93
2022-11-24T20:28:03.834Z,26.47
2022-11-24T20:31:08.400Z,23.17
2022-11-24T20:34:12.201Z,22.17
2022-11-24T20:37:16.259Z,27.23
2022-11-24T20:40:19.249Z,25.73
2022-11-24T20:43:21.980Z,20.97
2022-11-24T20:46:26.838Z,24.57
2022-11-24T20:49:30.686Z,33.53
2022-11-24T20:52:34.761Z,34.77
2022-11-24T20:55:37.466Z,29.47
2022-11-24T20:58:40.382Z,30.97
2022-11-24T21:01:45.613Z,35.73
2022-11-24T21:04:48.433Z,34.50
2022-11-24T21:07:52.524Z,25.37
2022-11-24T21:10:56.383Z,28.57
2022-11-24T21:13:59.653Z,28.07
2022-11-24T21:17:03.334Z,26.07
2022-11-24T21:20:07.348Z,28.70
2022-11-24T21:23:11.602Z,24.93
2022-11-24T21:26:17.211Z,21.60
2022-11-24T21:29:23.266Z,28.73
2022-11-24T21:32:26.553Z,23.47
2022-11-24T21:35:29.520Z,24.43
2022-11-24T21:38:33.748Z,25.10
2022-11-24T21:41:36.485Z,26.53
2022-11-24T21:44:39.163Z,28.17
2022-11-24T21:47:42.547Z,31.00
2022-11-24T21:50:45.373Z,29.43
2022-11-24T21:53:49.600Z,40.63
2022-11-24T21:56:53.736Z,58.10
2022-11-24T21:59:56.800Z,43.00
2022-11-24T22:02:59.621Z,34.33
2022-11-24T22:06:03.206Z,30.27
2022-11-24T22:09:07.266Z,47.90
2022-11-24T22:12:10.047Z,77.07
2022-11-24T22:15:12.783Z,90.20
2022-11-24T22:18:15.569Z,85.53
2022-11-24T22:21:20.656Z,246.17
2022-11-24T22:24:27.312Z,67.43
2022-11-24T22:27:30.287Z,72.50
2022-11-24T22:30:33.022Z,46.13
2022-11-24T22:33:36.199Z,136.53
2022-11-24T22:36:38.906Z,79.53
2022-11-24T22:39:43.010Z,206.80
2022-11-24T22:42:46.087Z,172.10
2022-11-24T22:45:49.840Z,121.23
2022-11-24T22:48:53.901Z,84.23
2022-11-24T22:51:56.619Z,126.23
2022-11-24T22:55:00.749Z,81.40
2022-11-24T22:58:03.494Z,139.73
2022-11-24T23:01:07.089Z,47.50
2022-11-24T23:04:09.910Z,51.87
2022-11-24T23:07:12.707Z,62.57
2022-11-24T23:10:16.818Z,70.70
2022-11-24T23:13:19.537Z,38.73
2022-11-24T23:16:23.101Z,47.33
2022-11-24T23:19:25.870Z,85.43
2022-11-24T23:22:28.678Z,82.13
2022-11-24T23:25:34.414Z,108.07
2022-11-24T23:28:37.762Z,122.27
2022-11-24T23:31:40.828Z,141.83
2022-11-24T23:34:43.715Z,88.10
2022-11-24T23:38:06.621Z,89.60
2022-11-24T23:41:12.921Z,123.53
2022-11-24T23:44:15.653Z,91.67
2022-11-24T23:47:18.312Z,124.60
2022-11-24T23:50:21.238Z,74.83
2022-11-24T23:53:24.049Z,75.27
2022-11-24T23:56:32.289Z,79.73
2022-11-24T23:59:35.159Z,71.17
